Time;durP1;ratioP1;P1;durP2;ratioP2;P2;SDS_P1;SDS_P2;PMS_P1;PMS_P2;Temp;Humidity;BMP_temperature;BMP_pressure;BME280_temperature;BME280_humidity;BME280_pressure;Samples;Min_cycle;Max_cycle;Signal;HPM_P1;HPM_P2
2022/11/02 00:01:39;;;;;;;11.77;2.17;;;12.90;99.90;;;;;;4961239;28;20058;-84
2022/11/02 00:04:05;;;;;;;10.07;2.28;;;13.00;99.90;;;;;;4949561;28;20441;-83
2022/11/02 00:06:31;;;;;;;10.30;2.10;;;13.00;99.90;;;;;;4983254;28;20039;-84
2022/11/02 00:08:56;;;;;;;9.02;2.15;;;13.00;99.90;;;;;;4941586;29;20090;-83
2022/11/02 00:11:22;;;;;;;8.63;2.00;;;13.00;99.90;;;;;;4950845;28;20130;-82
2022/11/02 00:13:48;;;;;;;11.48;2.30;;;12.90;99.90;;;;;;4974679;28;20047;-82
2022/11/02 00:16:16;;;;;;;9.07;2.17;;;12.90;99.90;;;;;;4949215;28;20049;-82
2022/11/02 00:18:45;;;;;;;10.02;2.30;;;12.80;99.90;;;;;;4962579;28;20057;-82
2022/11/02 00:21:12;;;;;;;9.00;1.98;;;12.70;99.90;;;;;;4970243;28;20059;-83
2022/11/02 00:23:39;;;;;;;9.55;2.17;;;12.60;99.90;;;;;;4941569;28;20039;-82
2022/11/02 00:26:05;;;;;;;10.32;2.00;;;12.60;99.90;;;;;;4975891;28;20047;-81
2022/11/02 00:28:31;;;;;;;11.43;2.00;;;12.50;99.90;;;;;;4976540;28;20042;-83
2022/11/02 00:30:56;;;;;;;11.55;2.28;;;12.50;99.90;;;;;;4976731;28;20050;-82
2022/11/02 00:33:22;;;;;;;11.75;1.90;;;12.40;99.90;;;;;;4959960;28;20047;-81
2022/11/02 00:35:48;;;;;;;10.57;1.95;;;12.40;99.90;;;;;;4961984;28;20054;-82
2022/11/02 00:38:13;;;;;;;10.57;1.90;;;12.30;99.90;;;;;;4957093;28;20130;-82
2022/11/02 00:40:39;;;;;;;8.32;1.90;;;12.30;99.90;;;;;;4954026;28;20038;-83
2022/11/02 00:43:05;;;;;;;9.32;2.20;;;12.40;99.90;;;;;;4975843;28;20046;-81
2022/11/02 00:45:31;;;;;;;11.10;2.38;;;12.50;99.90;;;;;;4960704;28;20495;-84
2022/11/02 00:47:56;;;;;;;10.48;2.22;;;12.40;99.90;;;;;;4975501;28;20038;-81
2022/11/02 00:50:22;;;;;;;12.50;2.33;;;12.40;99.90;;;;;;4951282;28;20054;-81
2022/11/02 00:52:48;;;;;;;11.30;2.42;;;12.40;99.90;;;;;;4979774;28;20095;-82
2022/11/02 00:55:14;;;;;;;11.63;2.28;;;12.40;99.90;;;;;;4971564;28;20381;-82
2022/11/02 00:57:40;;;;;;;12.73;2.80;;;12.50;99.90;;;;;;4995973;28;20109;-82
2022/11/02 01:00:08;;;;;;;13.55;2.90;;;12.50;99.90;;;;;;4960284;28;20043;-82
2022/11/02 01:02:35;;;;;;;13.23;2.40;;;12.50;99.90;;;;;;4960562;28;20121;-80
2022/11/02 01:05:01;;;;;;;12.35;2.50;;;12.50;99.90;;;;;;4956577;28;20058;-81
2022/11/02 01:07:27;;;;;;;16.50;3.17;;;12.50;99.90;;;;;;4975887;28;20051;-83
2022/11/02 01:09:53;;;;;;;13.80;2.80;;;12.50;99.90;;;;;;4956508;28;20039;-82
2022/11/02 01:12:19;;;;;;;13.35;2.60;;;12.50;99.90;;;;;;4958996;28;20343;-82
2022/11/02 01:14:46;;;;;;;11.18;2.55;;;12.40;99.90;;;;;;4943683;28;20042;-82
2022/11/02 01:17:12;;;;;;;11.30;2.72;;;12.40;99.90;;;;;;4959097;28;20386;-82
2022/11/02 01:19:38;;;;;;;12.23;2.55;;;12.40;99.90;;;;;;4958748;28;20046;-82
2022/11/02 01:22:03;;;;;;;12.57;2.63;;;12.30;99.90;;;;;;4927876;28;20050;-81
2022/11/02 01:24:29;;;;;;;12.88;2.65;;;12.30;99.90;;;;;;4957445;28;20058;-81
2022/11/02 01:26:55;;;;;;;12.88;2.50;;;12.30;99.90;;;;;;4952108;28;20043;-80
2022/11/02 01:29:20;;;;;;;13.18;2.70;;;12.20;99.90;;;;;;4958837;28;20125;-80
2022/11/02 01:31:47;;;;;;;9.85;2.55;;;12.20;99.90;;;;;;4956719;28;20054;-81
2022/11/02 01:34:13;;;;;;;14.23;2.70;;;12.20;99.90;;;;;;4954628;28;20423;-78
2022/11/02 01:36:40;;;;;;;13.32;2.60;;;12.20;99.90;;;;;;4975377;28;20402;-83
2022/11/02 01:39:06;;;;;;;13.95;2.60;;;12.20;99.90;;;;;;4956243;28;20050;-81
2022/11/02 01:41:32;;;;;;;13.75;2.50;;;12.30;99.90;;;;;;4959668;28;20042;-80
2022/11/02 01:44:01;;;;;;;14.35;2.75;;;12.40;99.90;;;;;;4981424;28;20038;-81
2022/11/02 01:46:36;;;;;;;12.90;2.60;;;12.40;99.90;;;;;;4975091;28;20038;-82
2022/11/02 01:49:10;;;;;;;13.52;2.50;;;12.40;99.90;;;;;;4974384;28;20035;-81
2022/11/02 01:51:44;;;;;;;12.85;2.80;;;12.40;99.90;;;;;;4975062;28;20039;-82
2022/11/02 01:54:14;;;;;;;13.77;2.80;;;12.50;99.90;;;;;;4956012;28;20039;-82
2022/11/02 01:56:43;;;;;;;12.27;2.30;;;12.40;99.90;;;;;;4953183;28;20049;-82
2022/11/02 01:59:16;;;;;;;11.57;2.63;;;12.40;99.90;;;;;;4956011;28;20055;-82
2022/11/02 02:01:41;;;;;;;13.30;2.47;;;12.50;99.90;;;;;;4958842;28;20055;-81
2022/11/02 02:04:09;;;;;;;11.52;2.42;;;12.60;99.90;;;;;;4940353;28;20092;-81
2022/11/02 02:06:36;;;;;;;11.52;2.60;;;12.50;99.90;;;;;;4963473;28;20105;-82
2022/11/02 02:09:04;;;;;;;12.02;2.50;;;12.50;99.90;;;;;;4973753;28;20124;-82
2022/11/02 02:11:34;;;;;;;15.27;2.70;;;12.50;99.90;;;;;;4974930;28;20047;-82
2022/11/02 02:14:07;;;;;;;12.95;2.60;;;12.50;99.90;;;;;;4962121;28;20050;-82
2022/11/02 02:17:05;;;;;;;12.52;2.75;;;12.50;99.90;;;;;;4980171;28;20034;-82
2022/11/02 02:19:49;;;;;;;13.75;2.50;;;12.10;99.90;;;;;;4965308;28;20101;-83
2022/11/02 02:22:26;;;;;;;11.50;2.65;;;12.40;99.90;;;;;;4956204;28;20185;-82
2022/11/02 02:25:22;;;;;;;12.40;2.53;;;12.40;99.90;;;;;;4964878;28;20070;-82
2022/11/02 02:28:25;;;;;;;12.25;2.40;;;12.40;99.90;;;;;;4974052;28;20471;-81
2022/11/02 02:30:57;;;;;;;12.95;2.72;;;12.40;99.90;;;;;;4963310;28;20484;-83
2022/11/02 02:33:39;;;;;;;;;;;12.40;99.90;;;;;;4972777;28;20034;-83
2022/11/02 02:36:18;;;;;;;11.93;2.47;;;12.30;99.90;;;;;;4961820;28;19919;-82
2022/11/02 02:38:48;;;;;;;14.38;2.67;;;12.40;99.90;;;;;;4977619;28;20682;-81
2022/11/02 02:41:24;;;;;;;14.75;2.75;;;12.30;99.90;;;;;;4974320;28;20046;-79
2022/11/02 02:43:53;;;;;;;12.73;2.67;;;12.30;99.90;;;;;;4969358;28;20039;-79
2022/11/02 02:46:49;;;;;;;10.57;2.20;;;12.30;99.90;;;;;;4967027;28;20046;-79
2022/11/02 02:49:22;;;;;;;9.40;2.05;;;12.30;99.90;;;;;;4962361;28;20498;-79
2022/11/02 02:51:48;;;;;;;9.77;1.70;;;12.20;99.90;;;;;;4957816;28;20050;-79
2022/11/02 02:54:22;;;;;;;7.15;1.70;;;12.10;99.90;;;;;;4968841;28;20051;-79
2022/11/02 02:56:54;;;;;;;8.15;1.70;;;11.90;99.90;;;;;;4953112;28;20045;-80
2022/11/02 02:59:33;;;;;;;11.82;1.70;;;11.90;99.90;;;;;;4974056;28;20527;-80
2022/11/02 03:01:59;;;;;;;7.97;2.08;;;11.70;99.90;;;;;;4973152;28;20566;-80
2022/11/02 03:04:25;;;;;;;11.25;2.42;;;11.70;99.90;;;;;;4966699;28;20130;-79
2022/11/02 03:06:57;;;;;;;11.25;2.42;;;11.70;99.90;;;;;;4966672;28;20093;-80
2022/11/02 03:09:44;;;;;;;11.95;2.60;;;11.70;99.90;;;;;;4954443;28;20047;-79
2022/11/02 03:12:22;;;;;;;9.90;2.38;;;11.60;99.90;;;;;;4968319;28;20055;-81
2022/11/02 03:14:51;;;;;;;9.88;2.30;;;11.70;99.90;;;;;;4973782;28;20046;-78
2022/11/02 03:17:35;;;;;;;10.07;2.10;;;11.70;99.90;;;;;;4973197;28;20043;-79
2022/11/02 03:20:22;;;;;;;8.77;1.70;;;11.70;99.90;;;;;;4953854;28;20114;-79
2022/11/02 03:23:14;;;;;;;9.18;1.60;;;11.70;99.90;;;;;;4971597;28;20417;-80
2022/11/02 03:26:18;;;;;;;6.25;1.20;;;11.70;99.90;;;;;;4957483;28;20050;-79
2022/11/02 03:29:12;;;;;;;7.00;1.10;;;11.70;99.90;;;;;;4922032;29;20546;-79
2022/11/02 03:31:49;;;;;;;5.45;1.20;;;11.60;99.90;;;;;;4959157;28;20242;-80
2022/11/02 03:34:27;;;;;;;6.43;1.20;;;11.40;99.90;;;;;;4958904;28;20040;-79
2022/11/02 03:37:10;;;;;;;6.63;1.25;;;11.40;99.90;;;;;;4958142;28;20043;-80
2022/11/02 03:39:43;;;;;;;5.20;1.10;;;11.30;99.90;;;;;;4968809;28;20471;-80
2022/11/02 03:42:12;;;;;;;8.50;1.55;;;11.20;99.90;;;;;;4973332;28;20061;-79
2022/11/02 03:44:39;;;;;;;6.63;1.33;;;11.20;99.90;;;;;;4972889;28;20087;-80
2022/11/02 03:47:10;;;;;;;6.65;1.30;;;11.10;99.90;;;;;;4957506;28;20046;-80
2022/11/02 03:49:38;;;;;;;8.32;1.23;;;11.00;99.90;;;;;;4956664;28;20042;-79
2022/11/02 03:52:07;;;;;;;7.00;1.17;;;11.00;99.90;;;;;;4972977;28;20528;-79
2022/11/02 03:54:36;;;;;;;8.07;1.55;;;10.90;99.90;;;;;;4960643;28;20054;-80
2022/11/02 03:57:06;;;;;;;8.32;1.50;;;10.90;99.90;;;;;;4958584;28;20047;-80
2022/11/02 03:59:32;;;;;;;5.32;1.20;;;10.90;99.90;;;;;;4957285;28;20097;-79
2022/11/02 04:02:00;;;;;;;7.95;1.50;;;10.80;99.90;;;;;;4972755;28;20129;-80
2022/11/02 04:04:25;;;;;;;8.13;1.58;;;10.80;99.90;;;;;;4956338;28;20106;-80
2022/11/02 04:06:52;;;;;;;7.72;1.38;;;10.80;99.90;;;;;;4944971;28;20175;-80
2022/11/02 04:09:18;;;;;;;6.63;1.35;;;10.70;99.90;;;;;;4971296;28;20046;-81
2022/11/02 04:14:36;;;;;;;7.13;1.48;;;10.70;99.90;;;;;;4972451;28;20137;-80
2022/11/02 04:19:48;;;;;;;8.93;1.60;;;10.70;99.90;;;;;;4952650;28;20502;-79
2022/11/02 04:27:43;;;;;;;9.40;1.65;;;10.70;99.90;;;;;;4972022;28;20050;-82
2022/11/02 04:30:09;;;;;;;7.15;1.60;;;10.70;99.90;;;;;;4965181;28;20051;-83
2022/11/02 04:35:28;;;;;;;7.78;1.58;;;10.70;99.90;;;;;;4963159;28;20047;-81
2022/11/02 04:40:38;;;;;;;7.68;1.98;;;10.60;99.90;;;;;;4960186;28;20051;-81
2022/11/02 04:43:04;;;;;;;9.85;1.85;;;10.70;99.90;;;;;;4983665;28;20042;-82
2022/11/02 04:45:30;;;;;;;9.07;1.90;;;10.70;99.90;;;;;;4974296;28;20054;-82
2022/11/02 04:48:00;;;;;;;9.88;1.92;;;10.70;99.90;;;;;;4956300;28;20428;-83
2022/11/02 04:50:26;;;;;;;8.93;1.73;;;10.80;99.90;;;;;;4957029;28;20110;-81
2022/11/02 04:52:59;;;;;;;9.48;2.00;;;10.90;99.90;;;;;;4969644;28;20038;-83
2022/11/02 04:55:26;;;;;;;9.18;2.00;;;10.90;99.90;;;;;;4976149;28;20117;-81
2022/11/02 04:57:52;;;;;;;9.50;2.10;;;11.00;99.90;;;;;;4956973;29;20047;-80
2022/11/02 05:00:20;;;;;;;9.93;2.10;;;11.00;99.90;;;;;;4974195;28;20050;-84
2022/11/02 05:02:49;;;;;;;10.50;1.90;;;11.10;99.90;;;;;;4976131;28;20051;-82
2022/11/02 05:05:16;;;;;;;12.40;2.40;;;11.10;99.90;;;;;;4979223;28;20050;-82
2022/11/02 05:07:42;;;;;;;11.40;2.08;;;11.10;99.90;;;;;;4975602;28;20038;-82
2022/11/02 05:10:09;;;;;;;10.02;2.00;;;11.20;99.90;;;;;;4975961;28;20047;-80
2022/11/02 05:12:35;;;;;;;10.43;2.20;;;11.20;99.90;;;;;;4972999;28;20035;-80
2022/11/02 05:15:00;;;;;;;8.75;1.88;;;11.20;99.90;;;;;;4965356;28;20049;-81
2022/11/02 05:17:26;;;;;;;8.80;2.10;;;11.20;99.90;;;;;;4962385;28;20075;-80
2022/11/02 05:19:52;;;;;;;9.98;2.22;;;11.20;99.90;;;;;;4955774;28;20051;-80
2022/11/02 05:22:18;;;;;;;8.75;2.08;;;11.20;99.90;;;;;;4968008;28;20055;-81
2022/11/02 05:24:44;;;;;;;9.35;2.20;;;11.20;99.90;;;;;;4975046;28;20046;-81
2022/11/02 05:27:10;;;;;;;9.57;2.10;;;11.30;99.90;;;;;;4992056;28;20054;-82
2022/11/02 05:29:35;;;;;;;12.00;2.20;;;11.30;99.90;;;;;;5003468;28;20038;-80
2022/11/02 05:32:01;;;;;;;11.55;2.25;;;11.30;99.90;;;;;;4966892;28;20539;-80
2022/11/02 05:34:27;;;;;;;10.85;2.15;;;11.30;99.90;;;;;;4969954;28;20141;-81
2022/11/02 05:36:52;;;;;;;11.35;2.28;;;11.30;99.90;;;;;;4959822;28;20189;-80
2022/11/02 05:39:18;;;;;;;12.65;2.28;;;11.30;99.90;;;;;;4975338;28;20479;-81
2022/11/02 05:41:44;;;;;;;10.75;2.25;;;11.20;99.90;;;;;;4959206;28;20370;-81
2022/11/02 05:44:09;;;;;;;13.50;2.63;;;11.30;99.90;;;;;;4965623;28;20055;-80
2022/11/02 05:46:35;;;;;;;13.00;2.28;;;11.30;99.90;;;;;;4989368;28;20422;-79
2022/11/02 05:49:01;;;;;;;10.80;2.40;;;11.30;99.90;;;;;;4968670;28;20075;-83
2022/11/02 05:51:26;;;;;;;11.68;2.60;;;11.20;99.90;;;;;;4960222;28;20047;-79
2022/11/02 05:53:52;;;;;;;10.98;2.40;;;11.20;99.90;;;;;;4946247;28;20039;-78
2022/11/02 05:56:18;;;;;;;9.63;2.33;;;11.20;99.90;;;;;;4963212;28;20047;-79
2022/11/02 05:58:43;;;;;;;11.68;2.55;;;11.10;99.90;;;;;;4973764;28;20039;-79
2022/11/02 06:01:09;;;;;;;11.75;2.35;;;11.10;99.90;;;;;;4954549;28;20049;-79
2022/11/02 06:03:36;;;;;;;10.98;2.45;;;11.00;99.90;;;;;;4957268;28;20042;-77
2022/11/02 06:06:06;;;;;;;13.43;2.83;;;11.00;99.90;;;;;;4960969;28;20491;-78
2022/11/02 06:08:36;;;;;;;11.07;2.42;;;11.00;99.90;;;;;;4946267;28;20090;-79
2022/11/02 06:11:07;;;;;;;13.30;2.65;;;10.90;99.90;;;;;;4960511;28;20056;-79
2022/11/02 06:13:33;;;;;;;13.30;2.92;;;10.90;99.90;;;;;;4974151;28;20054;-79
2022/11/02 06:16:01;;;;;;;14.07;2.80;;;10.90;99.90;;;;;;4958331;28;20066;-79
2022/11/02 06:18:27;;;;;;;12.35;2.55;;;10.90;99.90;;;;;;4957251;28;20043;-78
2022/11/02 06:20:55;;;;;;;11.30;2.72;;;10.90;99.90;;;;;;4953068;28;20043;-79
2022/11/02 06:23:21;;;;;;;14.15;3.05;;;10.90;99.90;;;;;;4952088;28;20094;-79
2022/11/02 06:25:54;;;;;;;14.68;2.92;;;10.90;99.90;;;;;;4973439;28;20065;-80
2022/11/02 06:28:20;;;;;;;14.25;3.03;;;10.80;99.90;;;;;;4974082;28;20065;-81
2022/11/02 06:30:46;;;;;;;13.25;2.65;;;10.80;99.90;;;;;;4958515;28;20424;-80
2022/11/02 06:33:11;;;;;;;17.15;2.97;;;10.80;99.90;;;;;;4960594;28;20038;-81
2022/11/02 06:35:37;;;;;;;17.05;3.13;;;10.80;99.90;;;;;;4968706;28;20463;-78
2022/11/02 06:38:03;;;;;;;13.05;2.60;;;10.80;99.90;;;;;;4966904;28;20118;-76
2022/11/02 06:40:28;;;;;;;12.35;2.70;;;10.80;99.90;;;;;;4965132;28;20039;-80
2022/11/02 06:42:57;;;;;;;13.10;2.97;;;10.80;99.90;;;;;;4956991;28;20078;-79
2022/11/02 06:45:24;;;;;;;15.30;2.92;;;10.80;99.90;;;;;;4955247;28;20042;-81
2022/11/02 06:47:49;;;;;;;16.52;3.10;;;10.80;99.90;;;;;;4960401;28;20082;-80
2022/11/02 06:50:15;;;;;;;14.75;3.13;;;10.80;99.90;;;;;;4962249;28;20084;-81
2022/11/02 06:52:43;;;;;;;11.15;2.70;;;10.80;99.90;;;;;;4955885;28;20047;-79
2022/11/02 06:55:10;;;;;;;15.70;3.10;;;10.70;99.90;;;;;;4959218;28;20116;-80
2022/11/02 06:57:37;;;;;;;14.90;3.40;;;10.80;99.90;;;;;;4953339;28;20042;-80
2022/11/02 07:00:04;;;;;;;14.00;2.92;;;10.80;99.90;;;;;;4964871;28;20478;-77
2022/11/02 07:02:30;;;;;;;12.70;3.05;;;10.80;99.90;;;;;;4955407;28;20043;-81
2022/11/02 07:04:56;;;;;;;14.15;3.00;;;10.80;99.90;;;;;;4958673;28;20494;-80
2022/11/02 07:07:22;;;;;;;14.25;2.75;;;10.80;99.90;;;;;;4969675;28;20050;-80
2022/11/02 07:09:48;;;;;;;15.82;3.17;;;10.70;99.90;;;;;;4960113;28;20113;-80
2022/11/02 07:12:13;;;;;;;13.75;3.00;;;10.70;99.90;;;;;;4966810;28;20050;-81
2022/11/02 07:14:39;;;;;;;14.82;3.08;;;10.70;99.90;;;;;;4962933;28;20057;-81
2022/11/02 07:17:05;;;;;;;15.52;3.40;;;10.70;99.90;;;;;;4969826;28;20047;-82
2022/11/02 07:19:31;;;;;;;21.23;3.42;;;10.70;99.90;;;;;;4970272;28;20042;-81
2022/11/02 07:21:57;;;;;;;16.50;2.63;;;10.70;99.90;;;;;;4971507;28;20051;-82
2022/11/02 07:24:22;;;;;;;12.57;3.00;;;10.70;99.90;;;;;;4956250;28;20147;-80
2022/11/02 07:26:49;;;;;;;15.02;3.05;;;10.80;99.90;;;;;;4969760;28;21253;-79
2022/11/02 07:29:15;;;;;;;16.90;3.10;;;10.80;99.90;;;;;;4966646;28;20043;-84
2022/11/02 07:31:41;;;;;;;13.25;3.10;;;10.90;99.90;;;;;;4924623;28;20047;-78
2022/11/02 07:34:07;;;;;;;17.77;2.97;;;11.00;99.90;;;;;;4971049;28;20554;-80
2022/11/02 07:36:32;;;;;;;17.77;3.10;;;11.20;99.90;;;;;;4999291;28;20427;-80
2022/11/02 07:38:58;;;;;;;11.98;3.00;;;11.30;99.90;;;;;;4969732;28;20074;-80
2022/11/02 07:41:24;;;;;;;15.20;3.30;;;11.30;99.90;;;;;;4985807;28;20034;-80
2022/11/02 07:43:50;;;;;;;16.55;3.22;;;11.40;99.90;;;;;;4968650;28;20097;-80
2022/11/02 07:46:15;;;;;;;18.33;3.10;;;11.40;99.90;;;;;;4967112;28;20505;-81
2022/11/02 07:48:41;;;;;;;12.38;2.70;;;11.50;99.90;;;;;;4970548;28;20422;-82
2022/11/02 07:51:07;;;;;;;15.02;2.80;;;11.50;99.90;;;;;;4939089;28;20039;-83
2022/11/02 07:53:33;;;;;;;14.38;2.95;;;11.40;99.90;;;;;;4971268;28;20049;-81
2022/11/02 07:55:59;;;;;;;12.85;2.83;;;11.40;99.90;;;;;;4970553;28;20061;-78
2022/11/02 07:58:25;;;;;;;14.65;2.67;;;11.40;99.90;;;;;;5000738;28;20157;-78
2022/11/02 08:00:53;;;;;;;13.18;2.85;;;11.40;99.90;;;;;;4970415;28;20497;-76
2022/11/02 08:03:19;;;;;;;13.73;2.60;;;11.40;99.90;;;;;;4964602;28;20503;-80
2022/11/02 08:05:45;;;;;;;17.17;2.78;;;11.30;99.90;;;;;;4952929;28;20043;-79
2022/11/02 08:08:13;;;;;;;15.07;2.70;;;11.40;99.90;;;;;;4983431;28;20057;-77
2022/11/02 08:10:39;;;;;;;16.13;2.92;;;11.40;99.90;;;;;;4970013;28;20129;-75
2022/11/02 08:13:07;;;;;;;16.27;3.00;;;11.30;99.90;;;;;;4967159;28;20058;-80
2022/11/02 08:15:32;;;;;;;15.32;2.83;;;11.40;99.90;;;;;;4963942;28;20058;-78
2022/11/02 08:18:07;;;;;;;12.85;2.50;;;11.30;99.90;;;;;;4952139;28;20055;-77
2022/11/02 08:20:36;;;;;;;13.73;2.53;;;11.40;99.90;;;;;;4960850;28;20460;-79
2022/11/02 08:23:02;;;;;;;12.88;3.00;;;11.40;99.90;;;;;;4955276;28;20047;-78
2022/11/02 08:25:29;;;;;;;15.80;2.67;;;11.40;99.90;;;;;;4946112;28;20035;-79
2022/11/02 08:27:57;;;;;;;13.00;2.83;;;11.40;99.90;;;;;;4989672;28;20031;-80
2022/11/02 08:30:23;;;;;;;13.77;2.40;;;11.40;99.90;;;;;;4992944;28;20049;-79
2022/11/02 08:32:48;;;;;;;12.23;2.10;;;11.50;99.90;;;;;;4974498;28;20128;-79
2022/11/02 08:35:14;;;;;;;12.52;2.40;;;11.50;99.90;;;;;;5007100;28;20046;-79
2022/11/02 08:37:40;;;;;;;15.18;2.78;;;11.60;99.90;;;;;;5008992;28;20051;-80
2022/11/02 08:40:06;;;;;;;16.27;2.50;;;11.70;99.90;;;;;;4976114;28;20411;-78
2022/11/02 08:42:32;;;;;;;12.65;2.15;;;11.60;99.90;;;;;;4976694;28;20054;-78
2022/11/02 08:44:58;;;;;;;12.73;2.35;;;11.60;99.90;;;;;;4939929;29;20494;-77
2022/11/02 08:47:23;;;;;;;14.80;2.60;;;11.70;99.90;;;;;;4963657;28;20035;-79
2022/11/02 08:49:50;;;;;;;13.05;2.10;;;11.70;99.90;;;;;;4989859;28;20521;-76
2022/11/02 08:52:17;;;;;;;12.23;2.60;;;11.90;99.90;;;;;;4968500;28;20105;-78
2022/11/02 08:54:43;;;;;;;11.95;2.30;;;12.00;99.90;;;;;;4940791;28;20051;-79
2022/11/02 08:57:09;;;;;;;10.40;2.28;;;12.10;99.90;;;;;;4986880;28;20057;-77
2022/11/02 08:59:34;;;;;;;9.82;2.10;;;12.30;99.90;;;;;;4984737;28;20042;-78
2022/11/02 09:02:00;;;;;;;10.32;2.30;;;12.40;99.90;;;;;;4957655;28;20047;-78
2022/11/02 09:04:26;;;;;;;11.90;2.03;;;12.50;99.90;;;;;;4959471;28;20050;-78
2022/11/02 09:06:51;;;;;;;11.45;2.25;;;12.50;99.90;;;;;;4989023;28;20426;-78
2022/11/02 09:09:17;;;;;;;8.90;1.90;;;12.60;99.90;;;;;;4973848;28;20045;-79
2022/11/02 09:11:43;;;;;;;13.48;2.40;;;12.60;99.90;;;;;;4977202;28;20046;-78
2022/11/02 09:14:08;;;;;;;11.40;2.08;;;12.70;99.90;;;;;;4991725;28;20475;-79
2022/11/02 09:16:34;;;;;;;10.10;2.20;;;12.80;99.90;;;;;;4972828;28;20039;-79
2022/11/02 09:19:00;;;;;;;11.85;2.17;;;12.90;99.90;;;;;;4982521;28;20106;-76
2022/11/02 09:21:26;;;;;;;10.63;1.83;;;12.90;99.90;;;;;;4956285;28;20047;-78
2022/11/02 09:23:51;;;;;;;10.98;1.90;;;12.80;99.90;;;;;;4968211;28;20050;-79
2022/11/02 09:26:17;;;;;;;10.88;2.17;;;12.70;99.90;;;;;;4989945;28;20039;-78
2022/11/02 09:28:43;;;;;;;10.88;1.98;;;12.70;99.90;;;;;;4940053;29;20482;-79
2022/11/02 09:31:08;;;;;;;12.63;2.17;;;12.70;99.90;;;;;;4956779;28;20130;-78
2022/11/02 09:33:35;;;;;;;11.68;2.13;;;12.70;99.90;;;;;;4946595;28;20100;-80
2022/11/02 09:36:03;;;;;;;10.35;2.15;;;12.70;99.90;;;;;;4975142;28;20051;-80
2022/11/02 09:38:29;;;;;;;10.45;1.88;;;12.70;99.90;;;;;;5001883;28;20244;-79
2022/11/02 09:40:54;;;;;;;10.48;1.92;;;12.80;99.90;;;;;;4956254;28;20150;-78
2022/11/02 09:43:32;;;;;;;11.55;2.00;;;12.90;99.90;;;;;;4992182;28;20034;-78
2022/11/02 09:46:11;;;;;;;8.57;1.70;;;13.00;99.90;;;;;;5007781;28;20058;-79
2022/11/02 09:49:04;;;;;;;10.23;1.60;;;12.90;99.90;;;;;;4960485;28;20098;-78
2022/11/02 09:52:01;;;;;;;8.48;1.80;;;12.90;99.90;;;;;;4993793;28;20547;-80
2022/11/02 09:54:35;;;;;;;13.93;1.95;;;12.90;99.90;;;;;;4957949;28;20078;-78
2022/11/02 09:57:08;;;;;;;10.48;1.90;;;13.00;99.90;;;;;;5006510;28;20035;-79
2022/11/02 09:59:33;;;;;;;10.57;1.95;;;13.10;99.90;;;;;;4995889;28;20109;-77
2022/11/02 10:02:18;;;;;;;10.70;1.70;;;13.10;99.90;;;;;;5001370;28;20055;-77
2022/11/02 10:04:58;;;;;;;9.75;1.90;;;13.00;99.90;;;;;;4958105;28;20126;-78
2022/11/02 10:07:33;;;;;;;9.15;1.67;;;13.00;99.90;;;;;;4987453;28;20035;-77
2022/11/02 10:10:25;;;;;;;10.60;1.95;;;13.00;99.90;;;;;;4956561;28;20118;-77
2022/11/02 10:13:20;;;;;;;11.10;1.77;;;13.00;99.90;;;;;;4952216;28;20055;-77
2022/11/02 10:16:19;;;;;;;8.63;1.92;;;13.10;99.90;;;;;;5001476;28;20057;-77
2022/11/02 10:18:49;;;;;;;9.05;1.80;;;13.10;99.90;;;;;;4987029;28;20047;-77
2022/11/02 10:21:35;;;;;;;12.70;2.13;;;13.10;99.90;;;;;;4986910;28;20047;-76
2022/11/02 10:24:10;;;;;;;9.63;1.83;;;13.20;99.90;;;;;;5000685;28;20039;-78
2022/11/02 10:26:42;;;;;;;10.10;1.98;;;13.20;99.90;;;;;;5007068;28;20118;-77
2022/11/02 10:29:15;;;;;;;9.25;1.98;;;13.20;99.90;;;;;;4974162;28;20195;-77
2022/11/02 10:31:42;;;;;;;9.40;2.03;;;13.30;99.90;;;;;;4968198;28;20143;-78
2022/11/02 10:34:13;;;;;;;9.60;2.20;;;13.20;99.90;;;;;;4986396;28;20073;-77
2022/11/02 10:36:52;;;;;;;10.57;1.90;;;13.20;99.90;;;;;;4954767;28;20047;-77
2022/11/02 10:39:52;;;;;;;13.52;2.20;;;13.20;99.90;;;;;;4987303;28;20126;-77
2022/11/02 10:43:19;;;;;;;11.70;2.20;;;13.20;99.90;;;;;;4946010;28;20062;-78
2022/11/02 10:46:06;;;;;;;8.13;1.80;;;13.00;99.90;;;;;;4890124;29;20080;-77
2022/11/02 10:49:18;;;;;;;10.13;2.03;;;12.90;99.90;;;;;;4969330;28;20078;-76
2022/11/02 10:51:44;;;;;;;11.75;1.90;;;12.80;99.90;;;;;;4967529;28;20495;-77
2022/11/02 10:54:15;;;;;;;9.90;1.73;;;12.80;99.90;;;;;;4986767;28;20047;-76
2022/11/02 10:56:42;;;;;;;10.65;2.08;;;12.80;99.90;;;;;;4967439;28;20046;-76
2022/11/02 10:59:19;;;;;;;11.25;2.25;;;13.00;99.90;;;;;;4962828;28;20081;-77
2022/11/02 11:02:14;;;;;;;11.10;2.05;;;13.10;99.90;;;;;;5006294;28;20047;-76
2022/11/02 11:04:40;;;;;;;9.63;1.95;;;13.30;99.90;;;;;;4959525;28;20485;-77
2022/11/02 11:07:16;;;;;;;13.15;2.17;;;13.50;99.90;;;;;;4999948;28;20483;-76
2022/11/02 11:09:49;;;;;;;10.70;1.85;;;13.70;99.90;;;;;;4954195;28;20074;-76
2022/11/02 11:12:19;;;;;;;8.70;1.90;;;13.80;99.90;;;;;;4986821;28;20511;-76
2022/11/02 11:15:01;;;;;;;7.70;1.80;;;13.90;99.90;;;;;;4961400;28;20050;-77
2022/11/02 11:17:35;;;;;;;8.63;1.75;;;14.00;99.90;;;;;;4959872;28;20035;-76
2022/11/02 11:20:03;;;;;;;12.32;1.88;;;14.00;99.90;;;;;;4972889;28;20105;-76
2022/11/02 11:22:31;;;;;;;9.45;1.95;;;14.00;99.90;;;;;;4964313;28;20483;-75
2022/11/02 11:25:12;;;;;;;10.38;1.75;;;13.90;99.90;;;;;;4961116;28;20061;-76
2022/11/02 11:27:58;;;;;;;10.35;2.00;;;13.80;99.90;;;;;;4990350;28;20075;-76
2022/11/02 11:30:25;;;;;;;10.60;2.08;;;13.60;99.90;;;;;;4964667;28;20082;-75
2022/11/02 11:32:52;;;;;;;12.13;2.40;;;13.50;99.90;;;;;;4956448;28;20043;-77
2022/11/02 11:35:19;;;;;;;11.60;1.80;;;13.50;99.90;;;;;;4962479;28;20042;-75
2022/11/02 11:37:55;;;;;;;7.60;1.60;;;13.40;99.90;;;;;;4991578;28;20106;-74
2022/11/02 11:40:21;;;;;;;10.70;1.90;;;13.30;99.90;;;;;;4993984;28;20071;-75
2022/11/02 11:42:53;;;;;;;10.48;1.90;;;13.30;99.90;;;;;;4960923;28;20075;-75
2022/11/02 11:45:21;;;;;;;;;;;13.30;99.90;;;;;;4961296;28;20050;-77
2022/11/02 11:47:51;;;;;;;9.07;1.70;;;13.30;99.90;;;;;;4973398;28;19988;-75
2022/11/02 11:50:17;;;;;;;11.35;2.10;;;13.20;99.90;;;;;;4959184;28;20134;-74
2022/11/02 11:52:43;;;;;;;10.13;1.73;;;13.10;99.90;;;;;;5005629;28;20051;-75
2022/11/02 11:55:26;;;;;;;9.80;1.73;;;13.20;99.90;;;;;;4954810;28;20047;-77
2022/11/02 11:58:14;;;;;;;10.82;1.98;;;13.30;99.90;;;;;;4997825;28;20471;-75
2022/11/02 12:00:40;;;;;;;13.25;1.95;;;13.40;99.90;;;;;;4954213;28;20376;-74
2022/11/02 12:03:09;;;;;;;9.25;1.70;;;13.50;99.90;;;;;;4984907;28;20058;-74
2022/11/02 12:05:50;;;;;;;9.48;1.90;;;13.50;99.90;;;;;;4990822;28;20047;-75
2022/11/02 12:08:34;;;;;;;10.52;2.00;;;13.70;99.90;;;;;;4963213;28;20047;-75
2022/11/02 12:11:45;;;;;;;9.63;1.73;;;13.90;99.90;;;;;;4971621;28;20101;-76
2022/11/02 12:14:32;;;;;;;8.65;1.63;;;14.10;99.90;;;;;;4965594;28;20069;-76
2022/11/02 12:17:24;;;;;;;9.65;1.90;;;14.30;99.90;;;;;;4972987;28;20118;-74
2022/11/02 12:19:49;;;;;;;8.13;1.60;;;14.40;99.90;;;;;;4960703;28;20078;-75
2022/11/02 12:22:30;;;;;;;10.60;1.73;;;14.40;99.90;;;;;;4972611;28;20502;-76
2022/11/02 12:25:29;;;;;;;8.27;1.58;;;14.40;99.90;;;;;;4960374;28;20042;-78
2022/11/02 12:28:08;;;;;;;8.35;1.70;;;14.30;99.90;;;;;;4972317;28;20038;-77
2022/11/02 12:31:05;;;;;;;9.85;1.80;;;14.20;99.90;;;;;;4945392;28;20131;-75
2022/11/02 12:33:57;;;;;;;10.25;1.63;;;14.20;99.90;;;;;;4985025;28;20087;-75
2022/11/02 12:36:33;;;;;;;10.05;1.80;;;14.30;99.90;;;;;;4946874;28;20499;-76
2022/11/02 12:39:18;;;;;;;9.75;1.73;;;14.30;99.90;;;;;;4963607;28;20051;-77
2022/11/02 12:42:23;;;;;;;9.27;1.75;;;14.40;99.90;;;;;;4958786;28;20118;-76
2022/11/02 12:45:20;;;;;;;7.30;1.60;;;14.50;99.90;;;;;;4974800;28;20086;-76
2022/11/02 12:47:55;;;;;;;8.07;1.63;;;14.50;99.90;;;;;;4972636;28;20493;-76
2022/11/02 12:50:46;;;;;;;10.85;1.80;;;14.40;99.90;;;;;;4959470;28;20054;-75
2022/11/02 12:53:32;;;;;;;10.20;1.63;;;14.30;99.90;;;;;;4971744;28;20051;-76
2022/11/02 12:56:00;;;;;;;8.48;1.73;;;14.20;99.90;;;;;;4972640;28;20055;-75
2022/11/02 12:58:33;;;;;;;8.05;1.58;;;14.10;99.90;;;;;;4971910;28;20052;-75
2022/11/02 13:01:19;;;;;;;9.32;1.58;;;14.10;99.90;;;;;;4962867;28;20065;-76
2022/11/02 13:04:24;;;;;;;8.05;1.50;;;14.20;99.90;;;;;;5003351;28;20078;-75
2022/11/02 13:06:55;;;;;;;9.43;1.83;;;14.30;99.90;;;;;;4998935;28;20082;-75
2022/11/02 13:09:30;;;;;;;9.68;1.70;;;14.30;99.90;;;;;;5002833;28;20074;-75
2022/11/02 13:12:02;;;;;;;9.00;1.95;;;14.30;99.90;;;;;;4989467;28;20083;-75
2022/11/02 13:14:32;;;;;;;;;;;14.30;99.90;;;;;;4983686;28;20047;-75
2022/11/02 13:17:08;;;;;;;8.38;1.80;;;14.20;99.90;;;;;;4967984;28;19917;-75
2022/11/02 13:19:44;;;;;;;10.48;1.83;;;14.20;99.90;;;;;;4988621;28;20035;-76